Time;durP1;ratioP1;P1;durP2;ratioP2;P2;SDS_P1;SDS_P2;PMS_P1;PMS_P2;Temp;Humidity;BMP_temperature;BMP_pressure;BME280_temperature;BME280_humidity;BME280_pressure;Samples;Min_cycle;Max_cycle;Signal;HPM_P1;HPM_P2
2022/06/05 00:02:15;;;;;;;19.10;10.80;;;13.80;99.90;;;;;;6189938;23;20290;-82
2022/06/05 00:05:02;;;;;;;17.63;10.10;;;13.90;99.90;;;;;;6190183;23;20242;-82
2022/06/05 00:07:36;;;;;;;16.25;9.63;;;13.80;99.90;;;;;;6216319;23;20187;-82
2022/06/05 00:10:07;;;;;;;15.45;10.32;;;14.10;99.90;;;;;;6216186;23;20476;-82
2022/06/05 00:12:59;;;;;;;14.98;9.77;;;13.80;99.90;;;;;;6189966;23;20183;-82
2022/06/05 00:15:24;;;;;;;13.57;8.50;;;13.80;99.90;;;;;;6189698;23;20155;-82
2022/06/05 00:17:50;;;;;;;17.73;11.27;;;13.80;99.90;;;;;;6190089;23;20156;-82
2022/06/05 00:20:17;;;;;;;15.15;9.48;;;13.90;99.90;;;;;;6189931;23;20186;-82
2022/06/05 00:22:42;;;;;;;16.08;10.80;;;13.80;99.90;;;;;;6189761;23;20658;-82
2022/06/05 00:25:10;;;;;;;17.05;11.30;;;13.80;99.90;;;;;;6189365;23;20152;-82
2022/06/05 00:27:46;;;;;;;22.60;12.68;;;13.80;99.90;;;;;;6189764;23;20242;-82
2022/06/05 00:30:21;;;;;;;17.90;11.95;;;13.80;99.90;;;;;;6189749;23;20159;-82
2022/06/05 00:32:58;;;;;;;22.02;12.07;;;13.70;99.90;;;;;;6190002;23;20182;-81
2022/06/05 00:35:30;;;;;;;21.30;12.25;;;13.80;99.90;;;;;;6216276;23;20144;-82
2022/06/05 00:38:02;;;;;;;19.35;11.00;;;13.80;99.90;;;;;;6191433;23;20230;-81
2022/06/05 00:41:06;;;;;;;21.38;12.90;;;13.70;99.90;;;;;;6189504;23;20184;-81
2022/06/05 00:43:32;;;;;;;19.08;11.80;;;13.70;99.90;;;;;;6212499;23;20617;-81
2022/06/05 00:45:57;;;;;;;18.67;11.73;;;13.70;99.90;;;;;;6189564;23;20164;-81
2022/06/05 00:48:24;;;;;;;22.75;13.15;;;13.70;99.90;;;;;;6164808;23;20461;-82
2022/06/05 00:50:50;;;;;;;18.73;12.13;;;13.70;99.90;;;;;;6216005;23;20152;-82
2022/06/05 00:53:16;;;;;;;26.50;12.23;;;13.50;99.90;;;;;;6189611;23;20202;-82
2022/06/05 00:55:47;;;;;;;21.05;13.57;;;13.70;99.90;;;;;;6189246;23;20152;-82
2022/06/05 00:58:14;;;;;;;19.52;11.38;;;13.80;99.90;;;;;;6215682;23;20570;-82
2022/06/05 01:00:43;;;;;;;23.92;12.85;;;13.80;99.90;;;;;;6189464;23;20180;-81
2022/06/05 01:03:11;;;;;;;22.65;13.10;;;13.80;99.90;;;;;;6189331;23;20160;-81
2022/06/05 01:05:37;;;;;;;23.55;11.45;;;13.80;99.90;;;;;;6228136;23;20152;-81
2022/06/05 01:08:04;;;;;;;20.58;12.40;;;13.80;99.90;;;;;;6197527;23;20206;-81
2022/06/05 01:10:46;;;;;;;20.10;10.63;;;13.80;99.90;;;;;;6215720;23;20218;-82
2022/06/05 01:13:36;;;;;;;14.60;9.98;;;13.80;99.90;;;;;;6189775;23;20163;-82
2022/06/05 01:16:23;;;;;;;15.73;9.93;;;13.90;99.90;;;;;;6226471;23;20143;-81
2022/06/05 01:19:17;;;;;;;14.75;9.48;;;13.90;99.90;;;;;;6237156;23;20136;-81
2022/06/05 01:22:28;;;;;;;10.32;7.65;;;13.90;99.90;;;;;;6237580;23;20172;-81
2022/06/05 01:25:02;;;;;;;13.00;7.78;;;13.80;99.90;;;;;;6201946;23;20159;-81
2022/06/05 01:27:33;;;;;;;11.18;8.00;;;13.80;99.90;;;;;;6220772;23;20198;-81
2022/06/05 01:30:08;;;;;;;12.77;8.27;;;13.80;99.90;;;;;;6215998;23;20174;-82
2022/06/05 01:32:41;;;;;;;12.15;7.78;;;13.90;99.90;;;;;;6189298;23;20481;-82
2022/06/05 01:35:17;;;;;;;13.10;8.25;;;13.90;99.90;;;;;;6216162;23;20229;-82
2022/06/05 01:37:49;;;;;;;12.18;7.78;;;13.90;99.90;;;;;;6217556;23;20154;-82
2022/06/05 01:40:35;;;;;;;14.48;7.93;;;13.90;99.90;;;;;;6191302;23;20210;-82
2022/06/05 01:43:15;;;;;;;12.57;7.65;;;13.90;99.90;;;;;;6189814;23;20230;-82
2022/06/05 01:45:49;;;;;;;14.07;8.32;;;13.90;99.90;;;;;;6191213;23;20155;-82
2022/06/05 01:48:27;;;;;;;14.30;8.63;;;13.90;99.90;;;;;;6217525;23;20598;-82
2022/06/05 01:50:59;;;;;;;14.23;8.35;;;13.90;99.90;;;;;;6191391;23;20159;-82
2022/06/05 01:53:35;;;;;;;12.18;7.97;;;13.90;99.90;;;;;;6217266;23;20603;-82
2022/06/05 01:56:15;;;;;;;12.93;8.27;;;14.00;99.90;;;;;;6218098;23;20143;-83
2022/06/05 01:59:08;;;;;;;11.00;7.53;;;14.00;99.90;;;;;;6190767;23;20156;-82
2022/06/05 02:01:39;;;;;;;11.73;8.02;;;14.00;99.90;;;;;;6190918;23;20176;-82
2022/06/05 02:04:23;;;;;;;12.63;7.57;;;14.00;99.90;;;;;;6191610;23;20497;-82
2022/06/05 02:06:57;;;;;;;12.38;8.00;;;14.30;99.90;;;;;;6217703;23;20139;-82
2022/06/05 02:09:31;;;;;;;12.80;8.32;;;14.00;99.90;;;;;;6217397;23;20195;-87
2022/06/05 02:11:58;;;;;;;11.25;7.90;;;14.00;99.90;;;;;;6217828;23;20606;-83
2022/06/05 02:14:25;;;;;;;14.20;8.52;;;14.10;99.90;;;;;;6190722;23;20607;-83
2022/06/05 02:16:51;;;;;;;11.50;7.88;;;13.90;99.90;;;;;;6166461;23;20156;-82
2022/06/05 02:19:20;;;;;;;13.57;8.15;;;14.00;99.90;;;;;;6191295;23;20152;-82
2022/06/05 02:21:46;;;;;;;14.73;8.10;;;14.10;99.90;;;;;;6190994;23;20639;-82
2022/06/05 02:24:12;;;;;;;11.23;8.00;;;14.00;99.90;;;;;;6217631;23;20156;-82
2022/06/05 02:26:39;;;;;;;11.15;7.88;;;14.00;99.90;;;;;;6191085;23;20162;-83
2022/06/05 02:29:13;;;;;;;9.98;7.40;;;14.00;99.90;;;;;;6217621;23;20163;-83
2022/06/05 02:31:56;;;;;;;13.05;7.90;;;14.00;99.90;;;;;;6191010;23;20246;-82
2022/06/05 02:34:31;;;;;;;8.93;6.78;;;14.00;99.90;;;;;;6191430;23;20152;-82
2022/06/05 02:37:17;;;;;;;9.10;6.72;;;13.90;99.90;;;;;;6217700;23;20136;-82
2022/06/05 02:40:12;;;;;;;11.45;7.75;;;13.90;99.90;;;;;;6217060;23;20136;-82
2022/06/05 02:43:21;;;;;;;14.38;7.28;;;13.90;99.90;;;;;;6217189;23;20162;-82
2022/06/05 02:46:15;;;;;;;10.32;7.18;;;13.90;99.90;;;;;;6181989;23;20214;-82
2022/06/05 02:49:12;;;;;;;10.40;7.47;;;13.90;99.90;;;;;;6219359;23;20148;-82
2022/06/05 02:51:42;;;;;;;10.82;7.85;;;13.90;99.90;;;;;;6174845;23;20170;-82
2022/06/05 02:54:18;;;;;;;10.73;7.03;;;13.90;99.90;;;;;;6230922;23;20147;-82
2022/06/05 02:56:43;;;;;;;15.38;7.40;;;13.90;99.90;;;;;;6219235;23;20147;-83
2022/06/05 02:59:09;;;;;;;13.10;8.30;;;13.90;99.90;;;;;;6244885;23;20148;-82
2022/06/05 03:04:19;;;;;;;11.82;7.55;;;13.90;99.90;;;;;;6236674;23;20155;-82
2022/06/05 03:06:44;;;;;;;12.95;8.55;;;14.00;99.90;;;;;;6203860;23;20160;-84
2022/06/05 03:09:10;;;;;;;12.60;8.02;;;13.90;99.90;;;;;;6203233;23;20128;-82
2022/06/05 03:11:36;;;;;;;13.55;8.02;;;13.90;99.90;;;;;;6243574;23;20136;-95
2022/06/05 03:14:02;;;;;;;12.88;8.13;;;13.90;99.90;;;;;;6243660;23;20144;-82
2022/06/05 03:16:31;;;;;;;13.00;8.43;;;13.90;99.90;;;;;;6241888;23;20160;-82
2022/06/05 03:18:56;;;;;;;12.63;7.43;;;13.90;99.90;;;;;;6192405;23;20188;-81
2022/06/05 03:21:22;;;;;;;11.43;7.93;;;14.00;99.90;;;;;;6191093;23;20191;-82
2022/06/05 03:23:48;;;;;;;11.13;7.90;;;14.00;99.90;;;;;;6191211;23;20564;-82
2022/06/05 03:26:14;;;;;;;12.98;8.43;;;14.00;99.90;;;;;;6192630;23;20580;-82
2022/06/05 03:28:40;;;;;;;11.88;7.95;;;14.00;99.90;;;;;;6217995;23;20235;-82
2022/06/05 03:31:07;;;;;;;12.65;8.45;;;14.00;99.90;;;;;;6190919;23;20528;-82
2022/06/05 03:33:34;;;;;;;13.00;8.38;;;14.00;99.90;;;;;;6216930;23;20176;-90
2022/06/05 03:35:59;;;;;;;15.77;8.32;;;14.00;99.90;;;;;;6216541;23;20199;-83
2022/06/05 03:38:26;;;;;;;15.18;8.45;;;14.00;99.90;;;;;;6189987;23;20594;-82
2022/06/05 03:40:51;;;;;;;13.60;8.65;;;14.10;99.90;;;;;;6189966;23;20184;-82
2022/06/05 03:43:17;;;;;;;11.52;7.53;;;14.10;99.90;;;;;;6216492;23;20156;-82
2022/06/05 03:45:43;;;;;;;13.23;8.77;;;14.10;99.90;;;;;;6216279;23;20575;-83
2022/06/05 03:48:09;;;;;;;13.77;8.77;;;14.20;99.90;;;;;;6190058;23;20587;-82
2022/06/05 03:50:39;;;;;;;15.27;8.23;;;14.20;99.90;;;;;;6216724;23;20171;-90
2022/06/05 03:53:05;;;;;;;16.25;9.07;;;14.20;99.90;;;;;;6216724;23;20175;-82
2022/06/05 03:55:31;;;;;;;15.10;9.15;;;14.20;99.90;;;;;;6190034;23;20591;-82
2022/06/05 03:57:57;;;;;;;13.48;8.07;;;14.20;99.90;;;;;;6189773;23;20651;-83
2022/06/05 04:00:23;;;;;;;14.85;8.93;;;14.20;99.90;;;;;;6164708;23;20211;-83
2022/06/05 04:02:49;;;;;;;19.95;10.07;;;14.30;99.90;;;;;;6189618;23;20161;-83
2022/06/05 04:05:19;;;;;;;14.65;8.60;;;14.20;99.90;;;;;;6189477;23;20152;-83
2022/06/05 04:07:44;;;;;;;15.57;8.68;;;14.30;99.90;;;;;;6216173;23;20196;-82
2022/06/05 04:10:15;;;;;;;16.40;9.27;;;14.30;99.90;;;;;;6216027;23;20164;-82
2022/06/05 04:12:41;;;;;;;17.67;9.07;;;14.40;99.90;;;;;;6216326;23;20183;-83
2022/06/05 04:15:07;;;;;;;21.40;11.35;;;14.40;99.90;;;;;;6216581;23;20613;-82
2022/06/05 04:17:34;;;;;;;18.60;9.60;;;14.40;99.90;;;;;;6216434;23;20544;-82
2022/06/05 04:19:59;;;;;;;16.17;9.82;;;14.40;99.90;;;;;;6189646;23;20191;-83
2022/06/05 04:22:25;;;;;;;16.95;9.63;;;14.50;99.90;;;;;;6215962;23;20160;-82
2022/06/05 04:24:51;;;;;;;18.55;9.70;;;14.40;99.90;;;;;;6189821;23;20202;-83
2022/06/05 04:27:16;;;;;;;18.40;9.85;;;14.40;99.90;;;;;;6189853;23;20572;-82
2022/06/05 04:29:42;;;;;;;17.80;10.00;;;14.40;99.90;;;;;;6189565;23;20468;-83
2022/06/05 04:32:08;;;;;;;20.83;10.45;;;14.40;99.90;;;;;;6189881;23;20151;-83
2022/06/05 04:34:35;;;;;;;18.60;10.15;;;14.50;99.90;;;;;;6216282;23;20156;-83
2022/06/05 04:37:00;;;;;;;16.63;9.23;;;14.50;99.90;;;;;;6216107;23;20568;-83
2022/06/05 04:39:26;;;;;;;16.88;10.75;;;14.50;99.90;;;;;;6189538;23;20209;-83
2022/06/05 04:41:52;;;;;;;17.48;10.52;;;14.60;99.90;;;;;;6215991;23;20183;-83
2022/06/05 04:44:18;;;;;;;16.50;10.43;;;14.60;99.90;;;;;;6189520;23;20557;-85
2022/06/05 04:46:45;;;;;;;22.70;11.27;;;14.60;99.90;;;;;;6189303;23;20152;-83
2022/06/05 04:49:14;;;;;;;22.45;10.23;;;14.70;99.90;;;;;;6189436;23;20163;-82
2022/06/05 04:51:40;;;;;;;18.48;10.10;;;14.80;99.90;;;;;;6164992;23;20687;-83
2022/06/05 04:54:07;;;;;;;23.50;12.18;;;14.80;99.90;;;;;;6215597;23;20294;-83
2022/06/05 04:56:33;;;;;;;23.02;11.48;;;14.90;99.90;;;;;;6189403;23;20634;-83
2022/06/05 04:59:00;;;;;;;22.25;10.68;;;15.00;99.90;;;;;;6191715;23;20194;-82
2022/06/05 05:01:29;;;;;;;20.73;11.82;;;15.00;99.90;;;;;;6205565;23;20195;-83
2022/06/05 05:04:01;;;;;;;19.02;11.13;;;15.00;99.90;;;;;;6215961;23;20155;-83
2022/06/05 05:06:28;;;;;;;25.70;12.15;;;15.00;99.90;;;;;;6189183;23;20588;-83
2022/06/05 05:08:53;;;;;;;29.13;13.80;;;15.00;99.90;;;;;;6216072;23;20203;-83
2022/06/05 05:11:20;;;;;;;25.92;12.93;;;15.00;99.90;;;;;;6215874;23;20495;-83
2022/06/05 05:13:45;;;;;;;27.35;13.63;;;15.10;99.90;;;;;;6215714;23;20162;-90
2022/06/05 05:16:11;;;;;;;24.58;11.90;;;15.10;99.90;;;;;;6189876;23;20156;-83
2022/06/05 05:18:37;;;;;;;33.65;13.13;;;15.10;99.90;;;;;;6216233;23;20148;-83
2022/06/05 05:21:09;;;;;;;30.52;13.38;;;15.20;99.90;;;;;;6216227;23;20206;-83
2022/06/05 05:23:35;;;;;;;25.90;14.25;;;15.20;99.90;;;;;;6189034;23;20156;-83
2022/06/05 05:26:22;;;;;;;28.08;13.65;;;15.20;99.90;;;;;;6189062;23;20160;-84
2022/06/05 05:28:48;;;;;;;28.55;14.23;;;15.30;99.90;;;;;;6215634;23;20175;-85
2022/06/05 05:31:24;;;;;;;40.00;15.27;;;15.30;99.90;;;;;;6165517;23;20184;-82
2022/06/05 05:33:51;;;;;;;38.42;15.48;;;15.40;99.90;;;;;;6215426;23;20144;-83
2022/06/05 05:36:18;;;;;;;36.95;15.95;;;15.40;99.90;;;;;;6215270;23;20199;-83
2022/06/05 05:44:14;;;;;;;46.20;17.23;;;15.40;99.90;;;;;;6215207;23;20202;-84
2022/06/05 05:46:40;;;;;;;36.25;16.23;;;;;;;;;;6189116;23;20164;-86
2022/06/05 05:49:06;;;;;;;37.03;16.38;;;15.30;99.90;;;;;;6189308;23;20302;-83
2022/06/05 05:51:33;;;;;;;33.85;15.57;;;;;;;;;;6189479;23;20204;-83
2022/06/05 05:53:59;;;;;;;37.17;14.88;;;15.30;99.90;;;;;;6214935;23;20171;-86
2022/06/05 05:56:24;;;;;;;31.55;15.32;;;15.30;99.90;;;;;;6189692;23;20152;-83
2022/06/05 05:58:50;;;;;;;26.25;13.10;;;15.40;99.90;;;;;;6222158;23;20176;-83
2022/06/05 06:01:16;;;;;;;26.48;13.23;;;15.40;99.90;;;;;;6188935;23;20603;-83
2022/06/05 06:03:41;;;;;;;30.00;15.20;;;15.40;99.90;;;;;;6215663;23;20464;-82
2022/06/05 06:06:07;;;;;;;29.20;14.52;;;15.50;99.90;;;;;;6188379;23;20210;-86
2022/06/05 06:08:33;;;;;;;26.65;13.45;;;15.50;99.90;;;;;;6188280;23;20615;-83
2022/06/05 06:10:59;;;;;;;29.42;15.30;;;15.50;99.90;;;;;;6214847;23;20243;-83
2022/06/05 06:13:24;;;;;;;25.23;13.65;;;15.60;99.90;;;;;;6188409;23;20234;-83
2022/06/05 06:15:50;;;;;;;31.92;15.43;;;15.60;99.90;;;;;;6187555;23;20162;-88
2022/06/05 06:18:16;;;;;;;25.55;13.98;;;15.60;99.90;;;;;;6213497;23;20164;-83
2022/06/05 06:20:43;;;;;;;24.50;14.18;;;15.70;99.90;;;;;;6214045;23;20676;-84
2022/06/05 06:23:08;;;;;;;27.67;13.45;;;15.80;99.90;;;;;;6215928;23;20167;-82
2022/06/05 06:25:36;;;;;;;24.48;13.05;;;15.80;99.90;;;;;;6140914;23;20167;-82
2022/06/05 06:28:02;;;;;;;32.85;14.07;;;15.80;99.90;;;;;;6215675;23;20203;-82
2022/06/05 06:30:27;;;;;;;26.30;13.90;;;16.00;99.90;;;;;;6215133;23;20616;-83
2022/06/05 06:32:54;;;;;;;25.63;13.95;;;16.20;99.90;;;;;;6163426;23;20159;-84
2022/06/05 06:35:20;;;;;;;23.90;12.50;;;16.10;99.90;;;;;;6188982;23;20160;-83
2022/06/05 06:37:45;;;;;;;31.52;15.10;;;16.30;99.90;;;;;;6188930;23;20171;-82
2022/06/05 06:40:11;;;;;;;30.60;14.98;;;16.30;99.90;;;;;;6188855;23;20199;-83
2022/06/05 06:42:37;;;;;;;24.80;14.20;;;16.30;99.90;;;;;;6215464;23;20156;-83
2022/06/05 06:45:03;;;;;;;25.33;14.35;;;16.40;99.90;;;;;;6215609;23;20163;-83
2022/06/05 06:47:28;;;;;;;22.48;12.73;;;16.50;99.90;;;;;;6189312;23;20156;-85
2022/06/05 06:49:54;;;;;;;33.40;16.13;;;16.50;99.90;;;;;;6188490;23;20164;-87
2022/06/05 06:52:19;;;;;;;29.52;14.82;;;16.60;99.90;;;;;;6215362;23;20152;-83
2022/06/05 06:54:48;;;;;;;31.45;15.13;;;;;;;;;;6190001;23;20167;-83
2022/06/05 06:57:14;;;;;;;27.80;13.70;;;16.60;99.90;;;;;;6192328;23;20152;-83
2022/06/05 06:59:39;;;;;;;23.65;14.45;;;16.60;99.90;;;;;;6174000;23;20452;-83
2022/06/05 07:02:05;;;;;;;24.90;14.80;;;16.70;99.90;;;;;;6166097;23;20167;-83
2022/06/05 07:04:31;;;;;;;26.27;14.40;;;16.70;99.90;;;;;;6189004;23;20152;-83
2022/06/05 07:06:56;;;;;;;34.38;17.02;;;16.70;99.90;;;;;;6188363;23;20184;-87
2022/06/05 07:09:22;;;;;;;36.60;18.50;;;16.60;99.90;;;;;;6189760;23;20207;-83
2022/06/05 07:11:47;;;;;;;28.13;15.07;;;16.60;99.90;;;;;;6216158;23;20156;-83
2022/06/05 07:14:15;;;;;;;31.00;14.35;;;16.60;99.90;;;;;;6164754;23;20156;-83
2022/06/05 07:16:40;;;;;;;28.88;15.32;;;16.60;99.90;;;;;;6215493;23;20151;-83
2022/06/05 07:19:06;;;;;;;28.02;14.70;;;16.70;99.90;;;;;;6188776;23;20152;-85
2022/06/05 07:21:32;;;;;;;23.10;12.90;;;16.70;99.90;;;;;;6215707;23;20661;-84
2022/06/05 07:23:58;;;;;;;25.20;13.25;;;16.80;99.90;;;;;;6189472;23;20156;-83
2022/06/05 07:26:29;;;;;;;21.88;12.52;;;16.80;99.90;;;;;;6215814;23;20156;-83
2022/06/05 07:28:56;;;;;;;17.48;11.15;;;16.90;99.90;;;;;;6216146;23;20175;-83
2022/06/05 07:31:23;;;;;;;22.35;12.90;;;16.90;99.90;;;;;;6165281;23;20524;-85
2022/06/05 07:33:49;;;;;;;20.90;12.52;;;16.90;99.90;;;;;;6215559;23;20217;-81
2022/06/05 07:36:17;;;;;;;23.58;13.52;;;17.10;99.90;;;;;;6189371;23;20700;-82
2022/06/05 07:38:43;;;;;;;19.00;11.50;;;17.10;99.90;;;;;;6216279;23;20202;-82
2022/06/05 07:41:38;;;;;;;19.38;12.15;;;17.10;99.90;;;;;;6215937;23;20623;-83
2022/06/05 07:44:06;;;;;;;20.40;12.90;;;17.20;99.90;;;;;;6165001;23;20543;-82
2022/06/05 07:46:35;;;;;;;21.80;11.98;;;17.30;99.90;;;;;;6190122;23;20210;-83
2022/06/05 07:49:01;;;;;;;21.70;12.68;;;17.30;99.90;;;;;;6216710;23;20198;-84
2022/06/05 07:54:33;;;;;;;24.75;13.15;;;17.40;99.90;;;;;;6222928;23;20152;-86
2022/06/05 07:57:03;;;;;;;18.77;11.75;;;17.40;99.90;;;;;;6238458;23;20140;-85
2022/06/05 07:59:32;;;;;;;18.15;11.35;;;17.30;99.90;;;;;;6241533;23;20128;-83
2022/06/05 08:02:00;;;;;;;19.20;11.07;;;17.30;99.90;;;;;;6228791;23;20271;-83
2022/06/05 08:04:28;;;;;;;18.20;10.88;;;17.20;99.90;;;;;;6216982;23;20163;-84
2022/06/05 08:06:57;;;;;;;17.45;11.15;;;17.10;99.90;;;;;;6217207;23;20147;-83
2022/06/05 08:09:23;;;;;;;19.67;11.60;;;17.10;99.90;;;;;;6188880;23;20183;-85
2022/06/05 08:11:49;;;;;;;18.98;11.63;;;17.10;99.90;;;;;;6188730;23;20171;-83
2022/06/05 08:14:15;;;;;;;18.58;10.48;;;17.10;99.90;;;;;;6215535;23;20156;-84
2022/06/05 08:16:43;;;;;;;20.70;11.90;;;17.20;99.90;;;;;;6215736;23;20152;-85
2022/06/05 08:19:11;;;;;;;19.38;10.57;;;17.30;99.90;;;;;;6215034;23;20148;-83
2022/06/05 08:21:38;;;;;;;18.05;11.23;;;17.40;99.90;;;;;;6139791;23;20187;-84
2022/06/05 08:24:05;;;;;;;20.85;10.93;;;17.50;99.90;;;;;;6215755;23;20164;-83
2022/06/05 08:26:30;;;;;;;21.98;11.07;;;17.60;99.90;;;;;;6189614;23;20531;-84
2022/06/05 08:28:56;;;;;;;16.65;10.40;;;17.60;99.90;;;;;;6189999;23;20170;-83
2022/06/05 08:31:21;;;;;;;17.08;10.27;;;17.80;99.90;;;;;;6190912;23;20160;-84
2022/06/05 08:33:47;;;;;;;16.77;10.38;;;17.70;99.90;;;;;;6164480;23;20152;-85
2022/06/05 08:36:13;;;;;;;17.75;11.07;;;17.80;99.90;;;;;;6192064;23;20232;-84
2022/06/05 08:41:29;;;;;;;16.95;10.68;;;18.00;99.90;;;;;;6215530;23;20203;-83
2022/06/05 08:44:19;;;;;;;17.00;10.77;;;18.20;99.90;;;;;;6215964;23;20234;-84
2022/06/05 08:46:56;;;;;;;18.00;10.85;;;18.50;99.90;;;;;;6215504;23;20145;-85
2022/06/05 08:49:27;;;;;;;18.73;10.57;;;18.60;99.90;;;;;;6188907;23;20162;-83
2022/06/05 08:52:11;;;;;;;20.52;11.05;;;18.60;99.90;;;;;;6216250;23;20219;-84
2022/06/05 08:54:51;;;;;;;19.40;10.93;;;18.60;99.90;;;;;;6191534;23;20213;-83
2022/06/05 08:57:37;;;;;;;18.02;10.30;;;18.40;99.90;;;;;;6217449;23;20140;-84
2022/06/05 09:00:32;;;;;;;18.83;10.27;;;18.30;99.90;;;;;;6192881;23;20266;-84
2022/06/05 09:03:30;;;;;;;21.55;11.52;;;18.40;99.90;;;;;;6193007;23;20471;-83
2022/06/05 09:06:22;;;;;;;16.67;11.32;;;18.30;99.90;;;;;;6192570;23;20160;-84
2022/06/05 09:08:54;;;;;;;15.38;10.00;;;18.20;99.90;;;;;;6232972;23;20239;-84
2022/06/05 09:11:35;;;;;;;18.85;11.18;;;18.40;99.90;;;;;;6243491;23;20128;-86
2022/06/05 09:14:11;;;;;;;20.23;10.77;;;18.50;99.90;;;;;;6243290;23;20132;-89
2022/06/05 09:16:50;;;;;;;18.15;10.57;;;18.90;99.90;;;;;;6217042;23;20227;-84
2022/06/05 09:19:27;;;;;;;15.20;9.60;;;19.00;99.90;;;;;;6196590;23;20156;-84
2022/06/05 09:22:03;;;;;;;15.23;9.18;;;19.00;99.90;;;;;;6219125;23;20214;-83
2022/06/05 09:24:55;;;;;;;13.60;8.30;;;18.90;99.90;;;;;;6236602;23;20180;-85
2022/06/05 09:27:39;;;;;;;17.50;9.50;;;18.90;99.90;;;;;;6215722;23;20149;-93
2022/06/05 09:30:28;;;;;;;13.98;9.30;;;19.20;99.90;;;;;;6241916;23;20176;-84
2022/06/05 09:33:17;;;;;;;14.43;8.82;;;19.60;99.90;;;;;;6215910;23;20167;-84
2022/06/05 09:35:50;;;;;;;13.30;8.52;;;19.60;99.90;;;;;;6190183;23;20218;-83
2022/06/05 09:38:43;;;;;;;14.07;8.00;;;19.60;99.90;;;;;;6216496;23;20144;-87
2022/06/05 09:41:11;;;;;;;15.40;7.57;;;19.50;99.90;;;;;;6216160;23;20176;-84
2022/06/05 09:44:19;;;;;;;11.60;7.63;;;19.30;99.90;;;;;;6189760;23;20160;-84
2022/06/05 09:46:48;;;;;;;13.88;8.80;;;19.80;99.90;;;;;;6216083;23;20235;-84
2022/06/05 09:49:30;;;;;;;12.65;8.20;;;20.10;99.90;;;;;;6215674;23;20190;-83
2022/06/05 09:51:56;;;;;;;11.75;7.22;;;19.80;99.90;;;;;;6188537;23;20171;-84
2022/06/05 09:54:30;;;;;;;12.38;7.35;;;19.90;99.90;;;;;;6215415;23;20156;-89
2022/06/05 10:00:43;;;;;;;10.65;7.63;;;20.60;99.90;;;;;;6137612;23;20266;-84
2022/06/05 10:03:20;;;;;;;10.77;7.45;;;21.00;99.90;;;;;;6189857;23;20164;-84
2022/06/05 10:06:06;;;;;;;11.23;7.53;;;21.00;99.90;;;;;;6217176;23;20147;-83
2022/06/05 10:08:45;;;;;;;11.98;7.72;;;20.90;99.90;;;;;;6216553;23;20192;-83
2022/06/05 10:11:48;;;;;;;10.85;7.30;;;20.70;99.90;;;;;;6190666;23;20148;-83
2022/06/05 10:14:38;;;;;;;12.85;8.55;;;20.40;99.90;;;;;;6217483;23;20152;-83
2022/06/05 10:17:24;;;;;;;9.85;7.45;;;20.30;99.90;;;;;;6217088;23;20588;-83
2022/06/05 10:20:08;;;;;;;11.52;8.18;;;20.30;99.90;;;;;;6217523;23;20214;-83
2022/06/05 10:23:00;;;;;;;13.82;7.80;;;20.40;99.90;;;;;;6190948;23;20163;-83
2022/06/05 10:25:34;;;;;;;12.25;8.30;;;20.50;99.90;;;;;;6190840;23;20583;-84
2022/06/05 10:28:10;;;;;;;11.50;7.90;;;20.70;99.90;;;;;;6218119;23;20171;-82
2022/06/05 10:30:53;;;;;;;11.18;7.32;;;20.80;99.90;;;;;;6191130;23;20590;-83
2022/06/05 10:33:40;;;;;;;11.35;7.03;;;20.90;99.90;;;;;;6190846;23;20152;-83
2022/06/05 10:36:26;;;;;;;9.07;7.00;;;20.90;99.90;;;;;;6190956;23;20160;-83
2022/06/05 10:39:12;;;;;;;12.10;8.45;;;21.10;99.90;;;;;;6217506;23;20171;-83
2022/06/05 10:42:07;;;;;;;11.02;7.05;;;21.00;99.90;;;;;;6217078;23;20178;-84
2022/06/05 10:44:53;;;;;;;12.23;7.82;;;20.80;99.90;;;;;;6144793;23;20164;-83
2022/06/05 10:47:44;;;;;;;13.38;8.57;;;20.50;99.90;;;;;;6217503;23;20227;-85
2022/06/05 10:50:18;;;;;;;11.27;7.13;;;20.30;99.90;;;;;;6216257;23;20156;-84
2022/06/05 10:53:15;;;;;;;10.23;7.47;;;20.00;99.90;;;;;;6216635;23;20144;-84
2022/06/05 10:55:59;;;;;;;13.88;8.73;;;20.00;99.90;;;;;;6190629;23;20186;-84
2022/06/05 10:58:40;;;;;;;12.68;8.18;;;20.00;99.90;;;;;;6218029;23;20227;-82
2022/06/05 11:01:12;;;;;;;14.20;8.23;;;20.40;99.90;;;;;;6217923;23;20172;-83
2022/06/05 11:04:00;;;;;;;11.52;7.10;;;20.50;99.90;;;;;;6217205;23;20159;-82
2022/06/05 11:07:03;;;;;;;11.88;7.97;;;20.70;99.90;;;;;;6217136;23;20186;-84
2022/06/05 11:09:39;;;;;;;12.95;7.13;;;20.70;99.90;;;;;;6190444;23;20167;-84
2022/06/05 11:15:27;;;;;;;9.43;6.45;;;20.90;99.90;;;;;;6216817;23;20146;-85
2022/06/05 11:18:11;;;;;;;11.85;7.32;;;20.90;99.90;;;;;;6217023;23;20136;-83
2022/06/05 11:20:42;;;;;;;12.10;7.40;;;20.80;99.90;;;;;;6217078;23;20245;-84
2022/06/05 11:23:20;;;;;;;9.85;6.78;;;20.60;99.90;;;;;;6217354;23;20148;-82
2022/06/05 11:25:56;;;;;;;11.50;7.20;;;20.70;99.90;;;;;;6217331;23;20150;-84
2022/06/05 11:29:00;;;;;;;10.63;6.68;;;20.90;99.90;;;;;;6218703;23;20163;-85
2022/06/05 11:31:40;;;;;;;9.23;7.18;;;21.10;99.90;;;;;;6098584;23;20162;-84
2022/06/05 11:34:34;;;;;;;8.95;6.78;;;21.20;99.90;;;;;;6203918;23;20163;-84
2022/06/05 11:37:20;;;;;;;10.98;7.47;;;20.90;99.90;;;;;;6216835;23;20140;-84
2022/06/05 11:40:02;;;;;;;10.07;7.03;;;21.00;99.90;;;;;;6197944;23;20160;-83
2022/06/05 11:42:34;;;;;;;7.50;6.30;;;21.20;99.90;;;;;;6227201;23;20159;-84
2022/06/05 11:45:30;;;;;;;8.52;6.60;;;21.20;99.90;;;;;;6223522;23;20140;-87
2022/06/05 11:48:24;;;;;;;8.55;6.13;;;21.20;99.90;;;;;;6217116;23;20191;-82
2022/06/05 11:51:09;;;;;;;10.55;6.78;;;21.60;99.90;;;;;;6202984;23;20160;-82
2022/06/05 11:53:54;;;;;;;9.43;6.50;;;21.90;99.90;;;;;;6216919;23;20143;-84
2022/06/05 11:56:46;;;;;;;7.47;5.88;;;22.10;99.90;;;;;;6217018;23;20163;-84
2022/06/05 11:59:30;;;;;;;7.28;5.65;;;22.10;99.90;;;;;;6216644;23;20573;-85
2022/06/05 12:02:13;;;;;;;7.10;5.38;;;22.10;99.90;;;;;;6216471;23;20262;-84
2022/06/05 12:05:00;;;;;;;7.03;5.10;;;22.30;99.90;;;;;;6216144;23;20575;-82
2022/06/05 12:07:28;;;;;;;7.15;4.88;;;22.40;99.90;;;;;;6216132;23;20203;-84
2022/06/05 12:09:58;;;;;;;7.28;5.43;;;22.40;99.90;;;;;;6189630;23;20171;-85
2022/06/05 12:12:31;;;;;;;7.15;5.55;;;22.40;99.90;;;;;;6189401;23;20235;-85
2022/06/05 12:15:16;;;;;;;7.35;5.13;;;22.60;99.90;;;;;;6188631;23;20231;-84
2022/06/05 12:17:52;;;;;;;5.78;4.63;;;22.40;99.90;;;;;;6189194;23;20628;-86
2022/06/05 12:20:59;;;;;;;6.50;4.70;;;22.60;99.90;;;;;;6189052;23;20515;-83
2022/06/05 12:23:28;;;;;;;7.30;4.78;;;22.60;99.90;;;;;;6123763;23;20518;-84
2022/06/05 12:26:00;;;;;;;7.65;5.22;;;22.70;99.90;;;;;;6189236;23;20167;-86
2022/06/05 12:28:32;;;;;;;5.60;4.35;;;22.70;99.90;;;;;;6216165;23;20532;-87
2022/06/05 12:31:12;;;;;;;6.60;5.15;;;22.60;99.90;;;;;;6216149;23;20521;-84
2022/06/05 12:33:51;;;;;;;7.38;4.75;;;22.50;99.90;;;;;;6216083;23;20168;-84
2022/06/05 12:36:33;;;;;;;5.10;3.80;;;22.60;99.90;;;;;;6189489;23;20159;-84
2022/06/05 12:39:04;;;;;;;6.78;4.07;;;22.70;99.90;;;;;;6215313;23;20163;-83
2022/06/05 12:41:52;;;;;;;5.50;4.10;;;22.70;99.90;;;;;;6189024;23;20183;-85
2022/06/05 12:44:28;;;;;;;5.43;3.88;;;22.70;99.90;;;;;;6215772;23;20156;-85
2022/06/05 12:47:19;;;;;;;3.80;3.10;;;22.70;99.90;;;;;;6189230;23;20155;-82
2022/06/05 12:49:54;;;;;;;3.55;3.03;;;22.80;99.90;;;;;;6168421;23;20160;-86
2022/06/05 12:52:41;;;;;;;4.53;3.60;;;22.80;99.90;;;;;;6189546;23;20210;-85
2022/06/05 12:55:17;;;;;;;4.88;3.55;;;23.00;99.90;;;;;;6221006;23;20136;-81
2022/06/05 12:57:46;;;;;;;4.20;3.40;;;23.10;99.90;;;;;;6197547;23;20191;-85
2022/06/05 13:00:38;;;;;;;5.30;3.50;;;23.10;99.90;;;;;;6217946;23;20180;-84
2022/06/05 13:03:23;;;;;;;4.28;3.40;;;23.10;99.90;;;;;;6216241;23;20661;-85
2022/06/05 13:05:57;;;;;;;3.67;3.08;;;23.10;99.90;;;;;;6214732;23;20155;-85
2022/06/05 13:08:48;;;;;;;4.13;3.72;;;23.10;99.90;;;;;;6188435;23;20191;-83
2022/06/05 13:11:32;;;;;;;5.18;3.83;;;22.90;99.90;;;;;;6215451;23;20151;-83
2022/06/05 13:14:31;;;;;;;5.80;3.63;;;22.90;99.90;;;;;;6215517;23;20167;-84
2022/06/05 13:17:00;;;;;;;3.22;2.70;;;23.00;99.90;;;;;;6189816;23;20160;-82
2022/06/05 13:19:35;;;;;;;3.45;3.08;;;23.30;99.90;;;;;;6188570;23;20194;-82
2022/06/05 13:22:16;;;;;;;3.25;2.80;;;23.20;99.90;;;;;;6188290;23;20179;-83
2022/06/05 13:25:19;;;;;;;5.18;3.72;;;23.30;99.90;;;;;;6215463;23;20203;-82
2022/06/05 13:27:47;;;;;;;3.58;3.13;;;23.30;99.90;;;;;;6214091;23;20156;-84
2022/06/05 13:30:26;;;;;;;3.15;2.78;;;23.20;99.90;;;;;;6214552;23;20235;-83
2022/06/05 13:33:01;;;;;;;3.72;2.78;;;23.20;99.90;;;;;;6216445;23;20140;-85